sensor_id;sensor_type;location;lat;lon;timestamp;P1;durP1;ratioP1;P2;durP2;ratioP2
18274;SDS011;19470;49.322;7.218;2023-12-07T00:01:20;32.10;;;15.93;;
18274;SDS011;19470;49.322;7.218;2023-12-07T00:03:47;35.57;;;17.40;;
18274;SDS011;19470;49.322;7.218;2023-12-07T00:06:13;31.90;;;17.10;;
18274;SDS011;19470;49.322;7.218;2023-12-07T00:08:40;38.70;;;19.80;;
18274;SDS011;19470;49.322;7.218;2023-12-07T00:11:08;35.33;;;17.37;;
18274;SDS011;19470;49.322;7.218;2023-12-07T00:13:34;30.17;;;14.90;;
18274;SDS011;19470;49.322;7.218;2023-12-07T00:16:01;27.23;;;15.03;;
18274;SDS011;19470;49.322;7.218;2023-12-07T00:18:27;33.43;;;16.10;;
18274;SDS011;19470;49.322;7.218;2023-12-07T00:20:55;28.93;;;15.20;;
18274;SDS011;19470;49.322;7.218;2023-12-07T00:23:21;38.63;;;17.35;;
18274;SDS011;19470;49.322;7.218;2023-12-07T00:25:48;33.43;;;17.70;;
18274;SDS011;19470;49.322;7.218;2023-12-07T00:28:16;26.17;;;15.37;;
18274;SDS011;19470;49.322;7.218;2023-12-07T00:30:43;29.50;;;14.65;;
18274;SDS011;19470;49.322;7.218;2023-12-07T00:33:09;25.70;;;14.23;;
18274;SDS011;19470;49.322;7.218;2023-12-07T00:35:36;26.30;;;13.70;;
18274;SDS011;19470;49.322;7.218;2023-12-07T00:38:02;23.40;;;13.77;;
18274;SDS011;19470;49.322;7.218;2023-12-07T00:40:29;26.70;;;13.48;;
18274;SDS011;19470;49.322;7.218;2023-12-07T00:42:55;26.13;;;13.43;;
18274;SDS011;19470;49.322;7.218;2023-12-07T00:45:25;21.80;;;12.90;;
18274;SDS011;19470;49.322;7.218;2023-12-07T00:47:51;26.87;;;14.17;;
18274;SDS011;19470;49.322;7.218;2023-12-07T00:50:19;26.52;;;14.15;;
18274;SDS011;19470;49.322;7.218;2023-12-07T00:52:45;22.03;;;13.13;;
18274;SDS011;19470;49.322;7.218;2023-12-07T00:55:12;28.43;;;14.10;;
18274;SDS011;19470;49.322;7.218;2023-12-07T00:57:39;25.20;;;14.27;;
18274;SDS011;19470;49.322;7.218;2023-12-07T01:00:05;26.03;;;13.77;;
18274;SDS011;19470;49.322;7.218;2023-12-07T01:02:34;29.00;;;13.83;;
18274;SDS011;19470;49.322;7.218;2023-12-07T01:05:01;24.87;;;13.97;;
18274;SDS011;19470;49.322;7.218;2023-12-07T01:07:27;25.50;;;13.73;;
18274;SDS011;19470;49.322;7.218;2023-12-07T01:09:54;28.05;;;13.68;;
18274;SDS011;19470;49.322;7.218;2023-12-07T01:12:20;27.05;;;13.82;;
18274;SDS011;19470;49.322;7.218;2023-12-07T01:14:47;26.60;;;14.63;;
18274;SDS011;19470;49.322;7.218;2023-12-07T01:17:13;26.00;;;14.23;;
18274;SDS011;19470;49.322;7.218;2023-12-07T01:19:41;24.30;;;13.23;;
18274;SDS011;19470;49.322;7.218;2023-12-07T01:28:36;23.90;;;12.37;;
18274;SDS011;19470;49.322;7.218;2023-12-07T01:31:03;25.37;;;13.30;;
18274;SDS011;19470;49.322;7.218;2023-12-07T01:33:30;24.93;;;14.30;;
18274;SDS011;19470;49.322;7.218;2023-12-07T01:35:58;25.23;;;14.23;;
18274;SDS011;19470;49.322;7.218;2023-12-07T01:38:24;29.98;;;13.80;;
18274;SDS011;19470;49.322;7.218;2023-12-07T01:40:51;27.27;;;12.90;;
18274;SDS011;19470;49.322;7.218;2023-12-07T01:43:18;23.08;;;12.98;;
18274;SDS011;19470;49.322;7.218;2023-12-07T01:45:45;21.55;;;13.10;;
18274;SDS011;19470;49.322;7.218;2023-12-07T01:48:12;23.07;;;13.27;;
18274;SDS011;19470;49.322;7.218;2023-12-07T01:50:39;25.52;;;12.80;;
18274;SDS011;19470;49.322;7.218;2023-12-07T01:53:07;22.43;;;13.17;;
18274;SDS011;19470;49.322;7.218;2023-12-07T01:55:34;22.10;;;11.77;;
18274;SDS011;19470;49.322;7.218;2023-12-07T01:58:01;21.13;;;12.30;;
18274;SDS011;19470;49.322;7.218;2023-12-07T02:00:28;21.40;;;11.32;;
18274;SDS011;19470;49.322;7.218;2023-12-07T02:02:54;21.67;;;11.95;;
18274;SDS011;19470;49.322;7.218;2023-12-07T02:05:21;19.08;;;11.88;;
18274;SDS011;19470;49.322;7.218;2023-12-07T02:07:48;20.67;;;11.00;;
18274;SDS011;19470;49.322;7.218;2023-12-07T02:10:16;20.37;;;11.07;;
18274;SDS011;19470;49.322;7.218;2023-12-07T02:12:44;18.10;;;11.05;;
18274;SDS011;19470;49.322;7.218;2023-12-07T02:15:11;20.92;;;12.73;;
18274;SDS011;19470;49.322;7.218;2023-12-07T02:17:38;19.97;;;13.23;;
18274;SDS011;19470;49.322;7.218;2023-12-07T02:20:18;23.88;;;12.90;;
18274;SDS011;19470;49.322;7.218;2023-12-07T02:22:52;29.63;;;13.07;;
18274;SDS011;19470;49.322;7.218;2023-12-07T02:25:23;23.63;;;13.57;;
18274;SDS011;19470;49.322;7.218;2023-12-07T02:27:56;23.87;;;11.50;;
18274;SDS011;19470;49.322;7.218;2023-12-07T02:30:23;22.20;;;11.97;;
18274;SDS011;19470;49.322;7.218;2023-12-07T02:32:49;24.47;;;13.40;;
18274;SDS011;19470;49.322;7.218;2023-12-07T02:35:16;21.77;;;11.77;;
18274;SDS011;19470;49.322;7.218;2023-12-07T02:37:43;19.93;;;11.50;;
18274;SDS011;19470;49.322;7.218;2023-12-07T02:40:12;18.33;;;11.03;;
18274;SDS011;19470;49.322;7.218;2023-12-07T02:42:40;22.83;;;11.33;;
18274;SDS011;19470;49.322;7.218;2023-12-07T02:45:09;20.30;;;11.80;;
18274;SDS011;19470;49.322;7.218;2023-12-07T02:47:37;20.80;;;11.53;;
18274;SDS011;19470;49.322;7.218;2023-12-07T02:50:04;21.73;;;12.67;;
18274;SDS011;19470;49.322;7.218;2023-12-07T02:52:32;20.80;;;11.43;;
18274;SDS011;19470;49.322;7.218;2023-12-07T02:54:59;20.67;;;11.27;;
18274;SDS011;19470;49.322;7.218;2023-12-07T02:57:25;17.73;;;11.33;;
18274;SDS011;19470;49.322;7.218;2023-12-07T02:59:52;19.87;;;12.07;;
18274;SDS011;19470;49.322;7.218;2023-12-07T03:02:20;20.07;;;11.33;;
18274;SDS011;19470;49.322;7.218;2023-12-07T03:04:46;22.00;;;11.60;;
18274;SDS011;19470;49.322;7.218;2023-12-07T03:07:13;20.10;;;12.17;;
18274;SDS011;19470;49.322;7.218;2023-12-07T03:09:39;26.27;;;12.10;;
18274;SDS011;19470;49.322;7.218;2023-12-07T03:12:06;22.47;;;11.67;;
18274;SDS011;19470;49.322;7.218;2023-12-07T03:14:33;25.23;;;12.63;;
18274;SDS011;19470;49.322;7.218;2023-12-07T03:16:59;25.80;;;12.93;;
18274;SDS011;19470;49.322;7.218;2023-12-07T03:19:27;20.63;;;12.33;;
18274;SDS011;19470;49.322;7.218;2023-12-07T03:21:53;18.80;;;11.40;;
18274;SDS011;19470;49.322;7.218;2023-12-07T03:24:20;21.47;;;11.80;;
18274;SDS011;19470;49.322;7.218;2023-12-07T03:26:46;21.00;;;11.47;;
18274;SDS011;19470;49.322;7.218;2023-12-07T03:29:13;19.97;;;11.63;;
18274;SDS011;19470;49.322;7.218;2023-12-07T03:31:39;20.70;;;11.70;;
18274;SDS011;19470;49.322;7.218;2023-12-07T03:34:06;23.97;;;12.77;;
18274;SDS011;19470;49.322;7.218;2023-12-07T03:36:34;20.43;;;13.37;;
18274;SDS011;19470;49.322;7.218;2023-12-07T03:39:00;22.70;;;12.47;;
18274;SDS011;19470;49.322;7.218;2023-12-07T03:41:29;25.45;;;13.35;;
18274;SDS011;19470;49.322;7.218;2023-12-07T03:43:56;25.27;;;13.50;;
18274;SDS011;19470;49.322;7.218;2023-12-07T03:46:25;25.20;;;13.93;;
18274;SDS011;19470;49.322;7.218;2023-12-07T03:48:51;28.63;;;15.10;;
18274;SDS011;19470;49.322;7.218;2023-12-07T03:51:18;25.57;;;13.37;;
18274;SDS011;19470;49.322;7.218;2023-12-07T03:53:46;23.80;;;14.07;;
18274;SDS011;19470;49.322;7.218;2023-12-07T03:56:21;27.03;;;14.77;;
18274;SDS011;19470;49.322;7.218;2023-12-07T03:58:48;26.40;;;14.60;;
18274;SDS011;19470;49.322;7.218;2023-12-07T04:01:15;27.23;;;15.10;;
18274;SDS011;19470;49.322;7.218;2023-12-07T04:03:41;23.30;;;14.00;;
18274;SDS011;19470;49.322;7.218;2023-12-07T04:06:08;23.67;;;13.40;;
18274;SDS011;19470;49.322;7.218;2023-12-07T04:08:35;24.73;;;13.73;;
18274;SDS011;19470;49.322;7.218;2023-12-07T04:11:03;23.92;;;12.73;;
18274;SDS011;19470;49.322;7.218;2023-12-07T04:13:29;22.30;;;13.20;;
18274;SDS011;19470;49.322;7.218;2023-12-07T04:15:56;19.45;;;11.30;;
18274;SDS011;19470;49.322;7.218;2023-12-07T04:18:22;19.33;;;12.02;;
18274;SDS011;19470;49.322;7.218;2023-12-07T04:20:49;23.35;;;11.13;;
18274;SDS011;19470;49.322;7.218;2023-12-07T04:23:15;19.85;;;12.02;;
18274;SDS011;19470;49.322;7.218;2023-12-07T04:25:42;22.23;;;11.77;;
18274;SDS011;19470;49.322;7.218;2023-12-07T04:28:10;20.93;;;12.33;;
18274;SDS011;19470;49.322;7.218;2023-12-07T04:30:36;20.57;;;12.17;;
18274;SDS011;19470;49.322;7.218;2023-12-07T04:33:03;21.93;;;12.73;;
18274;SDS011;19470;49.322;7.218;2023-12-07T04:35:30;20.60;;;12.43;;
18274;SDS011;19470;49.322;7.218;2023-12-07T04:37:56;24.73;;;13.77;;
18274;SDS011;19470;49.322;7.218;2023-12-07T04:40:23;18.07;;;11.93;;
18274;SDS011;19470;49.322;7.218;2023-12-07T04:42:50;20.65;;;12.65;;
18274;SDS011;19470;49.322;7.218;2023-12-07T04:45:18;23.40;;;14.38;;
18274;SDS011;19470;49.322;7.218;2023-12-07T04:47:46;21.83;;;12.40;;
18274;SDS011;19470;49.322;7.218;2023-12-07T04:50:12;22.60;;;12.33;;
18274;SDS011;19470;49.322;7.218;2023-12-07T04:52:39;26.58;;;12.55;;
18274;SDS011;19470;49.322;7.218;2023-12-07T04:55:06;26.63;;;14.10;;
18274;SDS011;19470;49.322;7.218;2023-12-07T04:57:33;26.43;;;14.10;;
18274;SDS011;19470;49.322;7.218;2023-12-07T05:00:00;26.27;;;14.52;;
18274;SDS011;19470;49.322;7.218;2023-12-07T05:02:32;30.63;;;13.45;;
18274;SDS011;19470;49.322;7.218;2023-12-07T05:04:58;27.67;;;14.37;;
18274;SDS011;19470;49.322;7.218;2023-12-07T05:07:25;27.30;;;13.20;;
18274;SDS011;19470;49.322;7.218;2023-12-07T05:09:52;20.97;;;12.20;;
18274;SDS011;19470;49.322;7.218;2023-12-07T05:12:18;20.30;;;11.63;;
18274;SDS011;19470;49.322;7.218;2023-12-07T05:14:45;22.52;;;12.13;;
18274;SDS011;19470;49.322;7.218;2023-12-07T05:17:12;20.30;;;11.90;;
18274;SDS011;19470;49.322;7.218;2023-12-07T05:19:40;20.10;;;10.87;;
18274;SDS011;19470;49.322;7.218;2023-12-07T05:22:07;25.67;;;13.10;;
18274;SDS011;19470;49.322;7.218;2023-12-07T05:24:34;32.83;;;12.77;;
18274;SDS011;19470;49.322;7.218;2023-12-07T05:27:01;29.10;;;14.20;;
18274;SDS011;19470;49.322;7.218;2023-12-07T05:29:28;31.60;;;14.33;;
18274;SDS011;19470;49.322;7.218;2023-12-07T05:31:55;28.43;;;15.27;;
18274;SDS011;19470;49.322;7.218;2023-12-07T05:34:23;30.43;;;15.37;;
18274;SDS011;19470;49.322;7.218;2023-12-07T05:37:01;35.63;;;14.57;;
18274;SDS011;19470;49.322;7.218;2023-12-07T05:39:29;27.20;;;13.60;;
18274;SDS011;19470;49.322;7.218;2023-12-07T05:41:55;24.97;;;11.83;;
18274;SDS011;19470;49.322;7.218;2023-12-07T05:44:22;24.83;;;11.40;;
18274;SDS011;19470;49.322;7.218;2023-12-07T05:46:48;26.70;;;13.13;;
18274;SDS011;19470;49.322;7.218;2023-12-07T05:49:15;37.27;;;20.03;;
18274;SDS011;19470;49.322;7.218;2023-12-07T05:51:42;40.93;;;13.40;;
18274;SDS011;19470;49.322;7.218;2023-12-07T05:54:09;57.97;;;17.77;;
18274;SDS011;19470;49.322;7.218;2023-12-07T05:56:36;45.03;;;15.67;;
18274;SDS011;19470;49.322;7.218;2023-12-07T05:59:02;32.27;;;14.60;;
18274;SDS011;19470;49.322;7.218;2023-12-07T06:01:29;57.40;;;25.23;;
18274;SDS011;19470;49.322;7.218;2023-12-07T06:03:57;76.17;;;14.30;;
18274;SDS011;19470;49.322;7.218;2023-12-07T06:06:23;47.13;;;16.20;;
18274;SDS011;19470;49.322;7.218;2023-12-07T06:08:50;33.70;;;13.77;;
18274;SDS011;19470;49.322;7.218;2023-12-07T06:11:17;28.73;;;13.40;;
18274;SDS011;19470;49.322;7.218;2023-12-07T06:13:44;32.87;;;13.53;;
18274;SDS011;19470;49.322;7.218;2023-12-07T06:16:13;36.00;;;15.00;;
18274;SDS011;19470;49.322;7.218;2023-12-07T06:18:57;69.80;;;14.13;;
18274;SDS011;19470;49.322;7.218;2023-12-07T06:21:23;30.93;;;13.17;;
18274;SDS011;19470;49.322;7.218;2023-12-07T06:23:50;48.63;;;13.03;;
18274;SDS011;19470;49.322;7.218;2023-12-07T06:26:19;34.93;;;13.43;;
18274;SDS011;19470;49.322;7.218;2023-12-07T06:28:45;83.80;;;15.90;;
18274;SDS011;19470;49.322;7.218;2023-12-07T06:31:12;57.90;;;13.53;;
18274;SDS011;19470;49.322;7.218;2023-12-07T06:33:42;36.93;;;14.93;;
18274;SDS011;19470;49.322;7.218;2023-12-07T06:36:08;93.73;;;15.50;;
18274;SDS011;19470;49.322;7.218;2023-12-07T06:38:35;75.77;;;29.40;;
18274;SDS011;19470;49.322;7.218;2023-12-07T06:41:03;36.90;;;14.93;;
18274;SDS011;19470;49.322;7.218;2023-12-07T06:43:32;76.83;;;31.60;;
18274;SDS011;19470;49.322;7.218;2023-12-07T06:45:58;58.57;;;25.83;;
18274;SDS011;19470;49.322;7.218;2023-12-07T06:48:25;34.58;;;15.10;;
18274;SDS011;19470;49.322;7.218;2023-12-07T06:50:51;45.73;;;16.00;;
18274;SDS011;19470;49.322;7.218;2023-12-07T06:53:18;37.63;;;14.87;;
18274;SDS011;19470;49.322;7.218;2023-12-07T06:55:44;35.73;;;14.33;;
18274;SDS011;19470;49.322;7.218;2023-12-07T06:58:11;30.83;;;13.27;;
18274;SDS011;19470;49.322;7.218;2023-12-07T07:00:39;25.17;;;12.33;;
18274;SDS011;19470;49.322;7.218;2023-12-07T07:03:05;30.57;;;13.00;;
18274;SDS011;19470;49.322;7.218;2023-12-07T07:05:32;92.83;;;41.23;;
18274;SDS011;19470;49.322;7.218;2023-12-07T07:07:58;37.90;;;16.37;;
18274;SDS011;19470;49.322;7.218;2023-12-07T07:10:25;30.53;;;14.00;;
18274;SDS011;19470;49.322;7.218;2023-12-07T07:12:51;28.27;;;11.47;;
18274;SDS011;19470;49.322;7.218;2023-12-07T07:15:18;27.10;;;11.47;;
18274;SDS011;19470;49.322;7.218;2023-12-07T07:17:46;25.27;;;11.17;;
18274;SDS011;19470;49.322;7.218;2023-12-07T07:20:12;28.17;;;11.03;;
18274;SDS011;19470;49.322;7.218;2023-12-07T07:22:39;23.50;;;10.67;;
18274;SDS011;19470;49.322;7.218;2023-12-07T07:25:06;21.13;;;10.13;;
18274;SDS011;19470;49.322;7.218;2023-12-07T07:27:32;20.07;;;10.47;;
18274;SDS011;19470;49.322;7.218;2023-12-07T07:29:59;22.90;;;11.50;;
18274;SDS011;19470;49.322;7.218;2023-12-07T07:32:29;26.33;;;11.57;;
18274;SDS011;19470;49.322;7.218;2023-12-07T07:34:57;23.63;;;11.43;;
18274;SDS011;19470;49.322;7.218;2023-12-07T07:37:24;25.87;;;10.83;;
18274;SDS011;19470;49.322;7.218;2023-12-07T07:39:51;89.60;;;36.40;;
18274;SDS011;19470;49.322;7.218;2023-12-07T07:42:17;62.77;;;25.60;;
18274;SDS011;19470;49.322;7.218;2023-12-07T07:44:44;30.43;;;13.03;;
18274;SDS011;19470;49.322;7.218;2023-12-07T07:47:10;30.93;;;12.80;;
18274;SDS011;19470;49.322;7.218;2023-12-07T07:49:37;39.73;;;14.40;;
18274;SDS011;19470;49.322;7.218;2023-12-07T07:52:05;34.10;;;13.47;;
18274;SDS011;19470;49.322;7.218;2023-12-07T07:54:32;35.70;;;13.07;;
18274;SDS011;19470;49.322;7.218;2023-12-07T07:56:59;33.17;;;13.27;;
18274;SDS011;19470;49.322;7.218;2023-12-07T07:59:25;34.50;;;12.97;;
18274;SDS011;19470;49.322;7.218;2023-12-07T08:01:52;33.97;;;13.73;;
18274;SDS011;19470;49.322;7.218;2023-12-07T08:04:18;43.47;;;15.27;;
18274;SDS011;19470;49.322;7.218;2023-12-07T08:06:45;90.87;;;17.33;;
18274;SDS011;19470;49.322;7.218;2023-12-07T08:09:13;39.67;;;15.33;;
18274;SDS011;19470;49.322;7.218;2023-12-07T08:11:39;44.50;;;16.20;;
18274;SDS011;19470;49.322;7.218;2023-12-07T08:14:06;47.97;;;16.90;;
18274;SDS011;19470;49.322;7.218;2023-12-07T08:16:32;41.20;;;15.47;;
18274;SDS011;19470;49.322;7.218;2023-12-07T08:19:00;35.03;;;14.57;;
18274;SDS011;19470;49.322;7.218;2023-12-07T08:21:27;33.47;;;13.87;;
18274;SDS011;19470;49.322;7.218;2023-12-07T08:23:54;27.93;;;12.60;;
18274;SDS011;19470;49.322;7.218;2023-12-07T08:26:26;23.00;;;11.53;;
18274;SDS011;19470;49.322;7.218;2023-12-07T08:28:53;21.90;;;9.70;;
18274;SDS011;19470;49.322;7.218;2023-12-07T08:31:20;22.33;;;10.53;;
18274;SDS011;19470;49.322;7.218;2023-12-07T08:33:49;21.93;;;11.50;;
18274;SDS011;19470;49.322;7.218;2023-12-07T08:36:16;51.47;;;23.45;;
18274;SDS011;19470;49.322;7.218;2023-12-07T08:38:43;28.77;;;13.60;;
18274;SDS011;19470;49.322;7.218;2023-12-07T08:41:09;36.13;;;16.97;;
18274;SDS011;19470;49.322;7.218;2023-12-07T08:43:37;24.55;;;12.73;;
18274;SDS011;19470;49.322;7.218;2023-12-07T08:46:03;27.33;;;12.45;;
18274;SDS011;19470;49.322;7.218;2023-12-07T08:48:32;26.33;;;11.80;;
18274;SDS011;19470;49.322;7.218;2023-12-07T08:50:58;25.03;;;11.73;;
18274;SDS011;19470;49.322;7.218;2023-12-07T08:53:25;28.03;;;11.70;;
18274;SDS011;19470;49.322;7.218;2023-12-07T08:55:52;30.93;;;12.23;;
18274;SDS011;19470;49.322;7.218;2023-12-07T08:58:19;27.67;;;11.00;;
18274;SDS011;19470;49.322;7.218;2023-12-07T09:00:48;28.47;;;11.60;;
18274;SDS011;19470;49.322;7.218;2023-12-07T09:03:15;26.73;;;11.63;;
18274;SDS011;19470;49.322;7.218;2023-12-07T09:05:42;89.03;;;36.97;;
18274;SDS011;19470;49.322;7.218;2023-12-07T09:08:08;51.45;;;22.98;;
18274;SDS011;19470;49.322;7.218;2023-12-07T09:10:35;54.73;;;22.80;;
18274;SDS011;19470;49.322;7.218;2023-12-07T09:13:01;40.00;;;16.37;;
18274;SDS011;19470;49.322;7.218;2023-12-07T09:15:28;31.87;;;13.03;;
18274;SDS011;19470;49.322;7.218;2023-12-07T09:17:56;23.27;;;11.70;;
18274;SDS011;19470;49.322;7.218;2023-12-07T09:20:22;43.43;;;19.40;;
18274;SDS011;19470;49.322;7.218;2023-12-07T09:22:49;29.55;;;11.75;;
18274;SDS011;19470;49.322;7.218;2023-12-07T09:25:16;27.63;;;12.55;;
18274;SDS011;19470;49.322;7.218;2023-12-07T09:27:43;22.58;;;11.02;;
18274;SDS011;19470;49.322;7.218;2023-12-07T09:30:10;29.17;;;12.00;;
18274;SDS011;19470;49.322;7.218;2023-12-07T09:32:37;21.48;;;10.80;;
18274;SDS011;19470;49.322;7.218;2023-12-07T09:35:05;27.42;;;11.75;;
18274;SDS011;19470;49.322;7.218;2023-12-07T09:37:33;20.15;;;10.13;;
18274;SDS011;19470;49.322;7.218;2023-12-07T09:40:00;19.13;;;10.23;;
18274;SDS011;19470;49.322;7.218;2023-12-07T09:42:29;22.67;;;10.43;;
18274;SDS011;19470;49.322;7.218;2023-12-07T09:44:56;23.27;;;10.82;;
18274;SDS011;19470;49.322;7.218;2023-12-07T09:47:22;23.75;;;11.05;;
18274;SDS011;19470;49.322;7.218;2023-12-07T09:49:49;24.67;;;9.93;;
18274;SDS011;19470;49.322;7.218;2023-12-07T09:52:17;20.08;;;10.98;;
18274;SDS011;19470;49.322;7.218;2023-12-07T09:54:47;18.77;;;9.63;;
18274;SDS011;19470;49.322;7.218;2023-12-07T09:57:14;22.05;;;10.45;;
18274;SDS011;19470;49.322;7.218;2023-12-07T09:59:41;21.48;;;10.73;;
18274;SDS011;19470;49.322;7.218;2023-12-07T10:02:08;20.23;;;9.50;;
18274;SDS011;19470;49.322;7.218;2023-12-07T10:04:35;17.27;;;9.73;;
18274;SDS011;19470;49.322;7.218;2023-12-07T10:07:02;20.70;;;9.88;;
18274;SDS011;19470;49.322;7.218;2023-12-07T10:09:30;21.52;;;10.55;;
18274;SDS011;19470;49.322;7.218;2023-12-07T10:12:01;23.52;;;10.52;;
18274;SDS011;19470;49.322;7.218;2023-12-07T10:14:28;25.50;;;10.85;;
18274;SDS011;19470;49.322;7.218;2023-12-07T10:16:55;24.15;;;11.48;;
18274;SDS011;19470;49.322;7.218;2023-12-07T10:19:22;23.15;;;10.77;;
18274;SDS011;19470;49.322;7.218;2023-12-07T10:21:50;21.25;;;10.65;;
18274;SDS011;19470;49.322;7.218;2023-12-07T10:24:17;19.88;;;11.25;;
18274;SDS011;19470;49.322;7.218;2023-12-07T10:26:48;22.90;;;10.82;;
18274;SDS011;19470;49.322;7.218;2023-12-07T10:29:16;20.60;;;11.52;;
18274;SDS011;19470;49.322;7.218;2023-12-07T10:31:43;28.63;;;11.48;;
18274;SDS011;19470;49.322;7.218;2023-12-07T10:34:11;23.85;;;11.40;;
18274;SDS011;19470;49.322;7.218;2023-12-07T10:36:38;18.25;;;10.20;;
18274;SDS011;19470;49.322;7.218;2023-12-07T10:39:05;18.13;;;10.57;;
18274;SDS011;19470;49.322;7.218;2023-12-07T10:41:34;17.80;;;10.30;;
18274;SDS011;19470;49.322;7.218;2023-12-07T10:44:06;20.20;;;9.80;;
18274;SDS011;19470;49.322;7.218;2023-12-07T10:46:43;20.13;;;10.60;;
18274;SDS011;19470;49.322;7.218;2023-12-07T10:49:15;19.15;;;10.43;;
18274;SDS011;19470;49.322;7.218;2023-12-07T10:51:52;20.23;;;10.13;;
18274;SDS011;19470;49.322;7.218;2023-12-07T10:54:24;19.13;;;10.05;;
18274;SDS011;19470;49.322;7.218;2023-12-07T10:56:56;19.50;;;10.13;;
18274;SDS011;19470;49.322;7.218;2023-12-07T10:59:28;18.42;;;9.35;;
18274;SDS011;19470;49.322;7.218;2023-12-07T11:01:57;22.50;;;9.55;;
18274;SDS011;19470;49.322;7.218;2023-12-07T11:04:24;17.42;;;10.27;;
18274;SDS011;19470;49.322;7.218;2023-12-07T11:06:52;16.95;;;9.52;;
18274;SDS011;19470;49.322;7.218;2023-12-07T11:09:25;17.75;;;9.00;;
18274;SDS011;19470;49.322;7.218;2023-12-07T11:11:59;12.68;;;8.40;;
18274;SDS011;19470;49.322;7.218;2023-12-07T11:14:32;17.23;;;8.98;;
18274;SDS011;19470;49.322;7.218;2023-12-07T11:16:59;18.83;;;9.55;;
18274;SDS011;19470;49.322;7.218;2023-12-07T11:19:44;17.88;;;10.02;;
18274;SDS011;19470;49.322;7.218;2023-12-07T11:22:12;15.88;;;8.93;;
18274;SDS011;19470;49.322;7.218;2023-12-07T11:24:51;14.70;;;7.93;;
18274;SDS011;19470;49.322;7.218;2023-12-07T11:27:19;18.88;;;9.50;;
18274;SDS011;19470;49.322;7.218;2023-12-07T11:29:47;19.42;;;10.15;;
18274;SDS011;19470;49.322;7.218;2023-12-07T11:32:14;17.00;;;9.65;;
18274;SDS011;19470;49.322;7.218;2023-12-07T11:34:43;16.60;;;9.32;;
18274;SDS011;19470;49.322;7.218;2023-12-07T11:37:11;18.67;;;8.48;;
18274;SDS011;19470;49.322;7.218;2023-12-07T11:39:41;25.42;;;12.57;;
18274;SDS011;19470;49.322;7.218;2023-12-07T11:42:11;18.20;;;8.52;;
18274;SDS011;19470;49.322;7.218;2023-12-07T11:44:38;13.18;;;7.95;;
18274;SDS011;19470;49.322;7.218;2023-12-07T11:47:10;14.35;;;8.32;;
18274;SDS011;19470;49.322;7.218;2023-12-07T11:49:45;13.90;;;7.57;;
18274;SDS011;19470;49.322;7.218;2023-12-07T11:52:13;16.23;;;8.18;;
18274;SDS011;19470;49.322;7.218;2023-12-07T11:54:42;13.93;;;8.10;;
18274;SDS011;19470;49.322;7.218;2023-12-07T11:57:10;13.02;;;7.95;;
18274;SDS011;19470;49.322;7.218;2023-12-07T11:59:36;13.10;;;7.88;;
18274;SDS011;19470;49.322;7.218;2023-12-07T12:02:03;17.77;;;8.45;;
18274;SDS011;19470;49.322;7.218;2023-12-07T12:04:31;13.43;;;8.73;;
18274;SDS011;19470;49.322;7.218;2023-12-07T12:07:01;13.77;;;8.35;;
18274;SDS011;19470;49.322;7.218;2023-12-07T12:09:28;12.75;;;8.18;;
18274;SDS011;19470;49.322;7.218;2023-12-07T12:11:55;15.50;;;7.82;;
18274;SDS011;19470;49.322;7.218;2023-12-07T12:14:25;32.78;;;17.17;;
18274;SDS011;19470;49.322;7.218;2023-12-07T12:16:52;14.73;;;8.85;;
18274;SDS011;19470;49.322;7.218;2023-12-07T12:19:19;13.43;;;8.40;;
18274;SDS011;19470;49.322;7.218;2023-12-07T12:21:47;17.63;;;9.57;;
18274;SDS011;19470;49.322;7.218;2023-12-07T12:24:14;13.82;;;8.65;;
18274;SDS011;19470;49.322;7.218;2023-12-07T12:26:41;11.18;;;7.70;;
18274;SDS011;19470;49.322;7.218;2023-12-07T12:29:08;15.98;;;9.18;;
18274;SDS011;19470;49.322;7.218;2023-12-07T12:31:36;14.18;;;8.27;;
18274;SDS011;19470;49.322;7.218;2023-12-07T12:34:05;15.65;;;8.18;;
18274;SDS011;19470;49.322;7.218;2023-12-07T12:36:33;16.42;;;9.00;;
18274;SDS011;19470;49.322;7.218;2023-12-07T12:39:01;14.15;;;8.63;;
18274;SDS011;19470;49.322;7.218;2023-12-07T12:41:30;13.07;;;8.30;;
18274;SDS011;19470;49.322;7.218;2023-12-07T12:43:57;14.43;;;8.50;;
18274;SDS011;19470;49.322;7.218;2023-12-07T12:46:25;16.45;;;8.75;;
18274;SDS011;19470;49.322;7.218;2023-12-07T12:48:52;11.65;;;7.35;;
18274;SDS011;19470;49.322;7.218;2023-12-07T12:51:19;11.38;;;7.35;;
18274;SDS011;19470;49.322;7.218;2023-12-07T12:53:46;15.98;;;7.55;;
18274;SDS011;19470;49.322;7.218;2023-12-07T12:56:15;13.02;;;7.68;;
18274;SDS011;19470;49.322;7.218;2023-12-07T12:58:41;18.42;;;8.02;;
18274;SDS011;19470;49.322;7.218;2023-12-07T13:01:08;13.63;;;8.00;;
18274;SDS011;19470;49.322;7.218;2023-12-07T13:03:35;13.38;;;7.75;;
18274;SDS011;19470;49.322;7.218;2023-12-07T13:06:02;12.30;;;8.27;;
18274;SDS011;19470;49.322;7.218;2023-12-07T13:08:29;14.45;;;7.97;;
18274;SDS011;19470;49.322;7.218;2023-12-07T13:10:58;19.05;;;10.60;;
18274;SDS011;19470;49.322;7.218;2023-12-07T13:13:26;11.25;;;7.22;;
18274;SDS011;19470;49.322;7.218;2023-12-07T13:15:52;12.57;;;7.43;;
18274;SDS011;19470;49.322;7.218;2023-12-07T13:18:19;12.75;;;8.20;;
18274;SDS011;19470;49.322;7.218;2023-12-07T13:20:45;13.98;;;7.47;;
18274;SDS011;19470;49.322;7.218;2023-12-07T13:23:12;11.43;;;7.63;;
18274;SDS011;19470;49.322;7.218;2023-12-07T13:25:38;14.35;;;8.32;;
18274;SDS011;19470;49.322;7.218;2023-12-07T13:28:06;14.55;;;7.57;;
18274;SDS011;19470;49.322;7.218;2023-12-07T13:30:35;12.02;;;7.78;;
18274;SDS011;19470;49.322;7.218;2023-12-07T13:33:02;13.00;;;8.77;;
18274;SDS011;19470;49.322;7.218;2023-12-07T13:35:31;13.90;;;8.85;;
18274;SDS011;19470;49.322;7.218;2023-12-07T13:37:58;14.63;;;8.98;;
18274;SDS011;19470;49.322;7.218;2023-12-07T13:40:24;16.55;;;8.90;;
18274;SDS011;19470;49.322;7.218;2023-12-07T13:42:52;16.65;;;9.85;;
18274;SDS011;19470;49.322;7.218;2023-12-07T13:45:18;16.52;;;9.57;;
18274;SDS011;19470;49.322;7.218;2023-12-07T13:47:47;24.67;;;14.50;;
18274;SDS011;19470;49.322;7.218;2023-12-07T13:50:13;18.25;;;10.95;;
18274;SDS011;19470;49.322;7.218;2023-12-07T13:52:42;19.92;;;11.27;;
18274;SDS011;19470;49.322;7.218;2023-12-07T13:55:09;12.98;;;9.30;;
18274;SDS011;19470;49.322;7.218;2023-12-07T13:57:35;14.50;;;8.38;;
18274;SDS011;19470;49.322;7.218;2023-12-07T14:00:02;16.17;;;9.75;;
18274;SDS011;19470;49.322;7.218;2023-12-07T14:02:32;15.88;;;9.68;;
18274;SDS011;19470;49.322;7.218;2023-12-07T14:05:04;19.38;;;10.25;;
18274;SDS011;19470;49.322;7.218;2023-12-07T14:07:37;17.92;;;9.95;;
18274;SDS011;19470;49.322;7.218;2023-12-07T14:10:10;17.67;;;10.02;;
18274;SDS011;19470;49.322;7.218;2023-12-07T14:12:38;16.15;;;9.35;;
18274;SDS011;19470;49.322;7.218;2023-12-07T14:15:05;14.43;;;8.93;;
18274;SDS011;19470;49.322;7.218;2023-12-07T14:17:35;17.75;;;10.27;;
18274;SDS011;19470;49.322;7.218;2023-12-07T14:20:05;28.92;;;16.08;;
18274;SDS011;19470;49.322;7.218;2023-12-07T14:22:34;29.88;;;15.80;;
18274;SDS011;19470;49.322;7.218;2023-12-07T14:25:01;36.90;;;19.55;;
18274;SDS011;19470;49.322;7.218;2023-12-07T14:27:28;13.45;;;9.20;;
18274;SDS011;19470;49.322;7.218;2023-12-07T14:29:57;15.07;;;9.63;;
18274;SDS011;19470;49.322;7.218;2023-12-07T14:32:23;18.08;;;9.23;;